Welcome to Trans World Virtual Airlines!

Welcome TWVA's Newest Pilot:

TWA2313 Bryan Heald

Not a Trans World pilot yet?
Apply Now!




Sign-in with your pilot id or email, or register

Flight TWA191-A

  • Submitted By: Austin Hill
  • Departure Airport: Lambert-Saint Louis International Airport (KSTL)
  • Arrival Airport: Kansas City International Airport (KMCI)
  • Aircraft: MD-83 (N44266TW)
  • Flight Time: 01.24
  • Date Submitted: 04/17/2018
  • Route: STL EDORE MCM MCI KMCI
  • Status: Accepted
Flight Details
Gross Revenue:
(121 load / $ 95.00 per unit
$ 11, 495.00
Fuel Cost:
(9960 fuel used @ 0.8 / unit)
$ 7, 968.00

Additional Log Information:

View Log

FS[20:43] Aircraft Title - MD_83 Paint4
FS[20:43] Aircraft Model - MD83
FS[20:43] Flight Number TWA191-A
FS[20:43] Departure KSTL
FS[20:43] Destination KMCI
FS[20:43] Boarding
FS[20:55] Pushing Back
FS[20:58] Taxiing to Runway
FS[21:06] Taking Off
FS[21:06] Taking Off
FS[21:06] 181kts
FS[21:06] pitch angle 8 degrees
FS[21:06] 18951 (lbs) of fuel onboard
FS[21:07] Climbing
FS[21:18] TOC Reached
FS[21:18] Cruise 28000
FS[21:35] TOD Reached
FS[21:35] Descending
FS[21:46] On Approach
FS[21:55] Landing Rate -118fpm
FS[21:55] 10727 (lbs) of fuel onboard
FS[21:55] pitch angle 6 degrees
FS[21:56] Taxiing to Gate
FS[22:01] Arrived
FS[22:07] Max Sim Rate: 1x
FS[22:07] kACARS_Free Version 1.0.1.1

Comments

Commenter Comment
Austin Hill KSTL 172045Z 10007KT 10SM FEW250 14/01 A2984 // MCI 172135Z 12813KT 10SM CLR 18/03 A2972

Route Map